sensor_id;sensor_type;location;lat;lon;timestamp;pressure;altitude;pressure_sealevel;temperature
65765;BMP180;52915;53.718;19.946;2022-07-23T00:03:25;100527.80;;;20.90
65765;BMP180;52915;53.718;19.946;2022-07-23T00:08:30;100531.80;;;20.80
65765;BMP180;52915;53.718;19.946;2022-07-23T00:13:34;100528.00;;;20.74
65765;BMP180;52915;53.718;19.946;2022-07-23T00:18:38;100525.20;;;20.70
65765;BMP180;52915;53.718;19.946;2022-07-23T00:23:42;100531.20;;;20.70
65765;BMP180;52915;53.718;19.946;2022-07-23T00:28:49;100529.80;;;20.68
65765;BMP180;52915;53.718;19.946;2022-07-23T00:33:53;100524.80;;;20.60
65765;BMP180;52915;53.718;19.946;2022-07-23T00:39:00;100530.00;;;20.60
65765;BMP180;52915;53.718;19.946;2022-07-23T00:44:23;100529.00;;;20.60
65765;BMP180;52915;53.718;19.946;2022-07-23T00:49:30;100528.60;;;20.70
65765;BMP180;52915;53.718;19.946;2022-07-23T00:54:35;100533.00;;;20.80
65765;BMP180;52915;53.718;19.946;2022-07-23T00:59:39;100523.40;;;20.90
65765;BMP180;52915;53.718;19.946;2022-07-23T01:04:43;100529.80;;;21.00
65765;BMP180;52915;53.718;19.946;2022-07-23T01:09:49;100530.60;;;21.00
65765;BMP180;52915;53.718;19.946;2022-07-23T01:14:59;100527.60;;;20.90
65765;BMP180;52915;53.718;19.946;2022-07-23T01:20:05;100530.00;;;20.90
65765;BMP180;52915;53.718;19.946;2022-07-23T01:25:09;100524.60;;;20.90
65765;BMP180;52915;53.718;19.946;2022-07-23T01:30:15;100520.80;;;20.98
65765;BMP180;52915;53.718;19.946;2022-07-23T01:35:19;100523.40;;;21.00
65765;BMP180;52915;53.718;19.946;2022-07-23T01:40:23;100528.60;;;21.00
65765;BMP180;52915;53.718;19.946;2022-07-23T01:45:29;100530.00;;;21.10
65765;BMP180;52915;53.718;19.946;2022-07-23T01:50:33;100534.40;;;21.10
65765;BMP180;52915;53.718;19.946;2022-07-23T01:55:38;100535.60;;;21.04
65765;BMP180;52915;53.718;19.946;2022-07-23T02:00:43;100525.60;;;20.90
65765;BMP180;52915;53.718;19.946;2022-07-23T02:05:49;100522.40;;;20.94
65765;BMP180;52915;53.718;19.946;2022-07-23T02:10:53;100524.60;;;21.04
65765;BMP180;52915;53.718;19.946;2022-07-23T02:15:58;100518.80;;;21.10
65765;BMP180;52915;53.718;19.946;2022-07-23T02:21:05;100512.00;;;21.10
65765;BMP180;52915;53.718;19.946;2022-07-23T02:26:11;100513.60;;;21.10
65765;BMP180;52915;53.718;19.946;2022-07-23T02:31:22;100515.00;;;21.10
65765;BMP180;52915;53.718;19.946;2022-07-23T02:36:27;100504.40;;;21.10
65765;BMP180;52915;53.718;19.946;2022-07-23T02:41:32;100510.80;;;20.90
65765;BMP180;52915;53.718;19.946;2022-07-23T02:46:36;100513.40;;;20.84
65765;BMP180;52915;53.718;19.946;2022-07-23T02:51:41;100516.40;;;21.00
65765;BMP180;52915;53.718;19.946;2022-07-23T02:56:46;100517.80;;;21.06
65765;BMP180;52915;53.718;19.946;2022-07-23T03:01:50;100508.40;;;21.10
65765;BMP180;52915;53.718;19.946;2022-07-23T03:06:55;100490.60;;;20.94
65765;BMP180;52915;53.718;19.946;2022-07-23T03:11:59;100489.00;;;20.86
65765;BMP180;52915;53.718;19.946;2022-07-23T03:17:03;100491.60;;;20.90
65765;BMP180;52915;53.718;19.946;2022-07-23T03:22:07;100493.00;;;21.00
65765;BMP180;52915;53.718;19.946;2022-07-23T03:27:12;100498.60;;;21.10
65765;BMP180;52915;53.718;19.946;2022-07-23T03:32:16;100483.00;;;21.10
65765;BMP180;52915;53.718;19.946;2022-07-23T03:37:21;100487.40;;;21.00
65765;BMP180;52915;53.718;19.946;2022-07-23T03:42:26;100486.20;;;21.00
65765;BMP180;52915;53.718;19.946;2022-07-23T03:47:31;100484.00;;;21.12
65765;BMP180;52915;53.718;19.946;2022-07-23T03:52:35;100489.00;;;21.20
65765;BMP180;52915;53.718;19.946;2022-07-23T03:57:40;100488.40;;;21.30
65765;BMP180;52915;53.718;19.946;2022-07-23T04:02:44;100489.60;;;21.20
65765;BMP180;52915;53.718;19.946;2022-07-23T04:07:48;100490.00;;;21.00
65765;BMP180;52915;53.718;19.946;2022-07-23T04:12:52;100494.40;;;21.00
65765;BMP180;52915;53.718;19.946;2022-07-23T04:17:56;100503.20;;;21.10
65765;BMP180;52915;53.718;19.946;2022-07-23T04:23:00;100493.60;;;21.20
65765;BMP180;52915;53.718;19.946;2022-07-23T04:28:08;100488.00;;;21.30
65765;BMP180;52915;53.718;19.946;2022-07-23T04:33:12;100490.40;;;21.30
65765;BMP180;52915;53.718;19.946;2022-07-23T04:38:17;100493.80;;;21.20
65765;BMP180;52915;53.718;19.946;2022-07-23T04:43:21;100494.40;;;21.26
65765;BMP180;52915;53.718;19.946;2022-07-23T04:48:25;100493.60;;;21.40
65765;BMP180;52915;53.718;19.946;2022-07-23T04:53:30;100496.60;;;21.60
65765;BMP180;52915;53.718;19.946;2022-07-23T04:58:35;100494.00;;;21.60
65765;BMP180;52915;53.718;19.946;2022-07-23T05:03:39;100484.80;;;21.60
65765;BMP180;52915;53.718;19.946;2022-07-23T05:08:44;100481.60;;;21.60
65765;BMP180;52915;53.718;19.946;2022-07-23T05:13:48;100477.20;;;21.70
65765;BMP180;52915;53.718;19.946;2022-07-23T05:18:52;100462.20;;;21.88
65765;BMP180;52915;53.718;19.946;2022-07-23T05:23:58;100461.00;;;21.80
65765;BMP180;52915;53.718;19.946;2022-07-23T05:29:02;100458.40;;;21.80
65765;BMP180;52915;53.718;19.946;2022-07-23T05:34:07;100456.40;;;21.98
65765;BMP180;52915;53.718;19.946;2022-07-23T05:39:11;100453.20;;;22.10
65765;BMP180;52915;53.718;19.946;2022-07-23T05:44:15;100443.40;;;22.28
65765;BMP180;52915;53.718;19.946;2022-07-23T05:49:20;100455.80;;;22.38
65765;BMP180;52915;53.718;19.946;2022-07-23T05:54:24;100458.20;;;22.40
65765;BMP180;52915;53.718;19.946;2022-07-23T05:59:29;100462.60;;;22.60
65765;BMP180;52915;53.718;19.946;2022-07-23T06:04:33;100459.80;;;22.70
65765;BMP180;52915;53.718;19.946;2022-07-23T06:09:38;100459.80;;;22.60
65765;BMP180;52915;53.718;19.946;2022-07-23T06:14:43;100449.20;;;22.82
65765;BMP180;52915;53.718;19.946;2022-07-23T06:19:47;100443.40;;;23.20
65765;BMP180;52915;53.718;19.946;2022-07-23T06:24:54;100444.80;;;23.50
65765;BMP180;52915;53.718;19.946;2022-07-23T06:29:59;100444.80;;;23.50
65765;BMP180;52915;53.718;19.946;2022-07-23T06:35:05;100439.80;;;23.88
65765;BMP180;52915;53.718;19.946;2022-07-23T06:40:11;100450.80;;;24.20
65765;BMP180;52915;53.718;19.946;2022-07-23T06:45:16;100448.00;;;24.10
65765;BMP180;52915;53.718;19.946;2022-07-23T06:50:22;100447.20;;;24.30
65765;BMP180;52915;53.718;19.946;2022-07-23T06:55:27;100437.60;;;24.68
65765;BMP180;52915;53.718;19.946;2022-07-23T07:00:32;100454.20;;;24.90
65765;BMP180;52915;53.718;19.946;2022-07-23T07:05:38;100461.20;;;24.90
65765;BMP180;52915;53.718;19.946;2022-07-23T07:10:55;100465.80;;;25.50
65765;BMP180;52915;53.718;19.946;2022-07-23T07:16:13;100447.00;;;25.60
65765;BMP180;52915;53.718;19.946;2022-07-23T07:21:18;100447.00;;;25.60
65765;BMP180;52915;53.718;19.946;2022-07-23T07:26:26;100437.80;;;25.80
65765;BMP180;52915;53.718;19.946;2022-07-23T07:32:19;100433.40;;;25.94
65765;BMP180;52915;53.718;19.946;2022-07-23T07:38:10;100435.00;;;26.52
65765;BMP180;52915;53.718;19.946;2022-07-23T07:43:25;100444.00;;;26.70
65765;BMP180;52915;53.718;19.946;2022-07-23T07:48:31;100434.40;;;27.00
65765;BMP180;52915;53.718;19.946;2022-07-23T07:53:37;100425.80;;;27.00
65765;BMP180;52915;53.718;19.946;2022-07-23T07:58:42;100420.20;;;27.10
65765;BMP180;52915;53.718;19.946;2022-07-23T08:03:48;100418.20;;;27.50
65765;BMP180;52915;53.718;19.946;2022-07-23T08:08:53;100410.00;;;27.66
65765;BMP180;52915;53.718;19.946;2022-07-23T08:13:59;100413.40;;;27.80
65765;BMP180;52915;53.718;19.946;2022-07-23T08:19:04;100405.40;;;28.30
65765;BMP180;52915;53.718;19.946;2022-07-23T08:24:09;100396.40;;;28.50
65765;BMP180;52915;53.718;19.946;2022-07-23T08:29:14;100396.20;;;28.50
65765;BMP180;52915;53.718;19.946;2022-07-23T08:34:20;100396.20;;;28.40
65765;BMP180;52915;53.718;19.946;2022-07-23T08:39:26;100391.80;;;28.66
65765;BMP180;52915;53.718;19.946;2022-07-23T08:44:35;100392.20;;;29.30
65765;BMP180;52915;53.718;19.946;2022-07-23T08:49:41;100421.00;;;29.54
65765;BMP180;52915;53.718;19.946;2022-07-23T08:54:45;100392.60;;;29.60
65765;BMP180;52915;53.718;19.946;2022-07-23T08:59:53;100389.20;;;30.24
65765;BMP180;52915;53.718;19.946;2022-07-23T09:04:57;100395.80;;;31.22
65765;BMP180;52915;53.718;19.946;2022-07-23T09:10:09;100401.00;;;31.82
65765;BMP180;52915;53.718;19.946;2022-07-23T09:15:16;100416.20;;;32.56
65765;BMP180;52915;53.718;19.946;2022-07-23T09:20:21;100423.40;;;31.66
65765;BMP180;52915;53.718;19.946;2022-07-23T09:25:26;100387.60;;;31.62
65765;BMP180;52915;53.718;19.946;2022-07-23T09:30:32;100414.40;;;31.46
65765;BMP180;52915;53.718;19.946;2022-07-23T09:41:10;100392.80;;;32.10
65765;BMP180;52915;53.718;19.946;2022-07-23T09:46:32;100391.00;;;32.10
65765;BMP180;52915;53.718;19.946;2022-07-23T09:51:50;100406.20;;;31.52
65765;BMP180;52915;53.718;19.946;2022-07-23T09:56:58;100383.40;;;31.40
65765;BMP180;52915;53.718;19.946;2022-07-23T10:02:15;100387.20;;;31.80
65765;BMP180;52915;53.718;19.946;2022-07-23T10:07:26;100384.20;;;32.10
65765;BMP180;52915;53.718;19.946;2022-07-23T10:12:33;100390.60;;;31.80
65765;BMP180;52915;53.718;19.946;2022-07-23T10:17:41;100403.00;;;31.72
65765;BMP180;52915;53.718;19.946;2022-07-23T10:23:02;100410.80;;;31.00
65765;BMP180;52915;53.718;19.946;2022-07-23T10:39:30;100411.00;;;32.00
65765;BMP180;52915;53.718;19.946;2022-07-23T10:44:45;100393.80;;;32.56
65765;BMP180;52915;53.718;19.946;2022-07-23T10:49:52;100410.20;;;32.50
65765;BMP180;52915;53.718;19.946;2022-07-23T11:00:20;100416.80;;;31.20
65765;BMP180;52915;53.718;19.946;2022-07-23T11:05:46;100422.80;;;30.70
65765;BMP180;52915;53.718;19.946;2022-07-23T11:11:08;100412.80;;;30.80
65765;BMP180;52915;53.718;19.946;2022-07-23T11:16:20;100418.80;;;31.00
65765;BMP180;52915;53.718;19.946;2022-07-23T11:32:05;100427.20;;;31.80
65765;BMP180;52915;53.718;19.946;2022-07-23T11:37:12;100433.60;;;31.30
65765;BMP180;52915;53.718;19.946;2022-07-23T11:42:18;100432.00;;;30.80
65765;BMP180;52915;53.718;19.946;2022-07-23T11:47:25;100435.20;;;30.60
65765;BMP180;52915;53.718;19.946;2022-07-23T11:52:30;100441.80;;;30.30
65765;BMP180;52915;53.718;19.946;2022-07-23T11:57:41;100445.00;;;30.02
65765;BMP180;52915;53.718;19.946;2022-07-23T12:02:50;100454.60;;;29.80
65765;BMP180;52915;53.718;19.946;2022-07-23T12:07:56;100456.20;;;29.40
65765;BMP180;52915;53.718;19.946;2022-07-23T12:13:04;100454.60;;;28.82
65765;BMP180;52915;53.718;19.946;2022-07-23T12:18:12;100444.60;;;28.30
65765;BMP180;52915;53.718;19.946;2022-07-23T12:23:20;100433.80;;;27.80
65765;BMP180;52915;53.718;19.946;2022-07-23T12:28:31;100431.60;;;27.50
65765;BMP180;52915;53.718;19.946;2022-07-23T12:33:41;100426.20;;;27.24
65765;BMP180;52915;53.718;19.946;2022-07-23T12:38:49;100419.00;;;27.20
65765;BMP180;52915;53.718;19.946;2022-07-23T12:43:53;100419.00;;;27.26
65765;BMP180;52915;53.718;19.946;2022-07-23T12:49:03;100418.60;;;27.24
65765;BMP180;52915;53.718;19.946;2022-07-23T12:54:09;100422.20;;;27.12
65765;BMP180;52915;53.718;19.946;2022-07-23T12:59:15;100424.80;;;27.00
65765;BMP180;52915;53.718;19.946;2022-07-23T13:04:22;100420.40;;;26.90
65765;BMP180;52915;53.718;19.946;2022-07-23T13:09:30;100440.40;;;26.60
65765;BMP180;52915;53.718;19.946;2022-07-23T13:14:39;100448.60;;;26.20
65765;BMP180;52915;53.718;19.946;2022-07-23T13:19:44;100445.40;;;25.80
65765;BMP180;52915;53.718;19.946;2022-07-23T13:24:53;100449.20;;;25.40
65765;BMP180;52915;53.718;19.946;2022-07-23T13:29:57;100443.20;;;25.00
65765;BMP180;52915;53.718;19.946;2022-07-23T13:35:01;100439.00;;;24.80
65765;BMP180;52915;53.718;19.946;2022-07-23T13:40:07;100434.40;;;24.68
65765;BMP180;52915;53.718;19.946;2022-07-23T13:45:20;100433.20;;;24.60
65765;BMP180;52915;53.718;19.946;2022-07-23T13:50:33;100434.40;;;24.88
65765;BMP180;52915;53.718;19.946;2022-07-23T13:55:39;100428.00;;;25.00
65765;BMP180;52915;53.718;19.946;2022-07-23T14:00:53;100419.40;;;25.00
65765;BMP180;52915;53.718;19.946;2022-07-23T14:05:57;100423.20;;;24.90
65765;BMP180;52915;53.718;19.946;2022-07-23T14:11:03;100421.40;;;24.70
65765;BMP180;52915;53.718;19.946;2022-07-23T14:16:10;100427.60;;;24.76
65765;BMP180;52915;53.718;19.946;2022-07-23T14:21:14;100423.80;;;24.90
65765;BMP180;52915;53.718;19.946;2022-07-23T14:26:19;100423.80;;;25.10
65765;BMP180;52915;53.718;19.946;2022-07-23T14:31:24;100436.60;;;25.02
65765;BMP180;52915;53.718;19.946;2022-07-23T14:36:29;100424.80;;;24.90
65765;BMP180;52915;53.718;19.946;2022-07-23T14:41:35;100429.60;;;24.58
65765;BMP180;52915;53.718;19.946;2022-07-23T14:46:43;100442.60;;;24.40
65765;BMP180;52915;53.718;19.946;2022-07-23T14:51:48;100454.40;;;24.10
65765;BMP180;52915;53.718;19.946;2022-07-23T14:56:58;100434.20;;;23.80
65765;BMP180;52915;53.718;19.946;2022-07-23T15:02:04;100419.00;;;23.80
65765;BMP180;52915;53.718;19.946;2022-07-23T15:07:08;100419.20;;;23.84
65765;BMP180;52915;53.718;19.946;2022-07-23T15:12:17;100412.40;;;23.90
65765;BMP180;52915;53.718;19.946;2022-07-23T15:17:24;100385.20;;;24.20
65765;BMP180;52915;53.718;19.946;2022-07-23T15:22:29;100388.60;;;24.72
65765;BMP180;52915;53.718;19.946;2022-07-23T15:27:33;100378.40;;;24.70
65765;BMP180;52915;53.718;19.946;2022-07-23T15:32:38;100370.20;;;24.70
65765;BMP180;52915;53.718;19.946;2022-07-23T15:37:42;100380.60;;;24.72
65765;BMP180;52915;53.718;19.946;2022-07-23T15:42:49;100377.40;;;24.70
65765;BMP180;52915;53.718;19.946;2022-07-23T15:47:54;100368.40;;;24.70
65765;BMP180;52915;53.718;19.946;2022-07-23T15:53:02;100359.40;;;25.74
65765;BMP180;52915;53.718;19.946;2022-07-23T15:58:07;100373.40;;;25.74
65765;BMP180;52915;53.718;19.946;2022-07-23T16:03:13;100369.20;;;25.40
65765;BMP180;52915;53.718;19.946;2022-07-23T16:08:18;100363.40;;;25.42
65765;BMP180;52915;53.718;19.946;2022-07-23T16:13:23;100360.40;;;25.20
65765;BMP180;52915;53.718;19.946;2022-07-23T16:18:27;100349.60;;;25.00
65765;BMP180;52915;53.718;19.946;2022-07-23T16:23:34;100356.40;;;24.94
65765;BMP180;52915;53.718;19.946;2022-07-23T16:28:40;100339.20;;;25.20
65765;BMP180;52915;53.718;19.946;2022-07-23T16:33:45;100353.60;;;26.50
65765;BMP180;52915;53.718;19.946;2022-07-23T16:38:52;100356.20;;;26.48
65765;BMP180;52915;53.718;19.946;2022-07-23T16:43:57;100343.40;;;26.00
65765;BMP180;52915;53.718;19.946;2022-07-23T16:49:02;100342.00;;;25.70
65765;BMP180;52915;53.718;19.946;2022-07-23T16:54:07;100342.20;;;25.60
65765;BMP180;52915;53.718;19.946;2022-07-23T16:59:11;100341.80;;;25.60
65765;BMP180;52915;53.718;19.946;2022-07-23T17:04:16;100336.40;;;26.00
65765;BMP180;52915;53.718;19.946;2022-07-23T17:09:21;100328.60;;;26.30
65765;BMP180;52915;53.718;19.946;2022-07-23T17:14:25;100333.00;;;26.08
65765;BMP180;52915;53.718;19.946;2022-07-23T17:19:30;100327.60;;;25.80
65765;BMP180;52915;53.718;19.946;2022-07-23T17:24:35;100324.60;;;25.56
65765;BMP180;52915;53.718;19.946;2022-07-23T17:29:41;100325.20;;;25.00
65765;BMP180;52915;53.718;19.946;2022-07-23T17:34:46;100330.80;;;24.90
65765;BMP180;52915;53.718;19.946;2022-07-23T17:39:51;100335.20;;;24.70
65765;BMP180;52915;53.718;19.946;2022-07-23T17:44:55;100338.60;;;24.50
65765;BMP180;52915;53.718;19.946;2022-07-23T17:50:06;100330.20;;;24.30
65765;BMP180;52915;53.718;19.946;2022-07-23T17:55:11;100327.40;;;24.20
65765;BMP180;52915;53.718;19.946;2022-07-23T18:00:29;100329.20;;;24.20
65765;BMP180;52915;53.718;19.946;2022-07-23T18:05:34;100336.00;;;24.20
65765;BMP180;52915;53.718;19.946;2022-07-23T18:10:40;100320.80;;;24.00
65765;BMP180;52915;53.718;19.946;2022-07-23T18:15:44;100314.40;;;23.80
65765;BMP180;52915;53.718;19.946;2022-07-23T18:20:51;100313.80;;;23.60
65765;BMP180;52915;53.718;19.946;2022-07-23T18:25:56;100309.20;;;23.50
65765;BMP180;52915;53.718;19.946;2022-07-23T18:31:00;100314.40;;;23.40
65765;BMP180;52915;53.718;19.946;2022-07-23T18:36:06;100310.00;;;23.10
65765;BMP180;52915;53.718;19.946;2022-07-23T18:41:11;100311.80;;;23.00
65765;BMP180;52915;53.718;19.946;2022-07-23T18:46:16;100306.60;;;22.90
65765;BMP180;52915;53.718;19.946;2022-07-23T18:51:23;100314.60;;;22.70
65765;BMP180;52915;53.718;19.946;2022-07-23T18:56:27;100311.20;;;22.70
65765;BMP180;52915;53.718;19.946;2022-07-23T19:01:32;100308.40;;;22.70
65765;BMP180;52915;53.718;19.946;2022-07-23T19:06:38;100313.40;;;22.60
65765;BMP180;52915;53.718;19.946;2022-07-23T19:11:42;100317.80;;;22.36
65765;BMP180;52915;53.718;19.946;2022-07-23T19:16:46;100326.00;;;22.30
65765;BMP180;52915;53.718;19.946;2022-07-23T19:21:52;100328.60;;;22.36
65765;BMP180;52915;53.718;19.946;2022-07-23T19:26:56;100324.40;;;22.30
65765;BMP180;52915;53.718;19.946;2022-07-23T19:32:09;100334.20;;;22.26
65765;BMP180;52915;53.718;19.946;2022-07-23T19:37:17;100342.00;;;22.10
65765;BMP180;52915;53.718;19.946;2022-07-23T19:42:22;100352.00;;;22.00
65765;BMP180;52915;53.718;19.946;2022-07-23T19:47:30;100360.40;;;22.00
65765;BMP180;52915;53.718;19.946;2022-07-23T19:52:35;100355.40;;;21.90
65765;BMP180;52915;53.718;19.946;2022-07-23T19:57:41;100349.20;;;21.70
65765;BMP180;52915;53.718;19.946;2022-07-23T20:02:45;100349.60;;;21.70
65765;BMP180;52915;53.718;19.946;2022-07-23T20:07:57;100357.00;;;21.70
65765;BMP180;52915;53.718;19.946;2022-07-23T20:13:03;100356.80;;;21.70
65765;BMP180;52915;53.718;19.946;2022-07-23T20:18:07;100370.60;;;21.70
65765;BMP180;52915;53.718;19.946;2022-07-23T20:23:12;100375.40;;;21.60
65765;BMP180;52915;53.718;19.946;2022-07-23T20:28:20;100382.80;;;21.40
65765;BMP180;52915;53.718;19.946;2022-07-23T20:33:24;100411.80;;;21.10
65765;BMP180;52915;53.718;19.946;2022-07-23T20:38:28;100418.40;;;20.70
65765;BMP180;52915;53.718;19.946;2022-07-23T20:43:47;100432.00;;;20.40
65765;BMP180;52915;53.718;19.946;2022-07-23T20:49:15;100448.80;;;20.00
65765;BMP180;52915;53.718;19.946;2022-07-23T20:54:21;100445.80;;;19.60
65765;BMP180;52915;53.718;19.946;2022-07-23T20:59:27;100447.20;;;19.26
65765;BMP180;52915;53.718;19.946;2022-07-23T21:04:34;100459.20;;;19.10
65765;BMP180;52915;53.718;19.946;2022-07-23T21:09:38;100468.60;;;18.90
65765;BMP180;52915;53.718;19.946;2022-07-23T21:14:44;100473.40;;;18.90
65765;BMP180;52915;53.718;19.946;2022-07-23T21:19:48;100477.40;;;18.80
65765;BMP180;52915;53.718;19.946;2022-07-23T21:24:52;100480.60;;;18.80
65765;BMP180;52915;53.718;19.946;2022-07-23T21:29:59;100488.20;;;18.70
65765;BMP180;52915;53.718;19.946;2022-07-23T21:35:06;100485.00;;;18.70
65765;BMP180;52915;53.718;19.946;2022-07-23T21:40:11;100488.80;;;18.60
65765;BMP180;52915;53.718;19.946;2022-07-23T21:45:16;100495.80;;;18.52
65765;BMP180;52915;53.718;19.946;2022-07-23T21:50:20;100505.00;;;18.58
65765;BMP180;52915;53.718;19.946;2022-07-23T21:55:25;100500.80;;;18.60
65765;BMP180;52915;53.718;19.946;2022-07-23T22:00:33;100500.80;;;18.66
65765;BMP180;52915;53.718;19.946;2022-07-23T22:05:40;100501.60;;;18.70
65765;BMP180;52915;53.718;19.946;2022-07-23T22:10:44;100508.40;;;18.70
65765;BMP180;52915;53.718;19.946;2022-07-23T22:15:49;100506.40;;;18.70
65765;BMP180;52915;53.718;19.946;2022-07-23T22:20:54;100500.60;;;18.70
65765;BMP180;52915;53.718;19.946;2022-07-23T22:25:58;100495.40;;;18.72
65765;BMP180;52915;53.718;19.946;2022-07-23T22:31:03;100508.00;;;18.80
65765;BMP180;52915;53.718;19.946;2022-07-23T22:36:09;100515.20;;;18.80
65765;BMP180;52915;53.718;19.946;2022-07-23T22:41:14;100521.00;;;18.70
65765;BMP180;52915;53.718;19.946;2022-07-23T22:46:18;100513.20;;;18.52
65765;BMP180;52915;53.718;19.946;2022-07-23T22:51:23;100519.00;;;18.60
65765;BMP180;52915;53.718;19.946;2022-07-23T22:56:31;100521.00;;;18.70
65765;BMP180;52915;53.718;19.946;2022-07-23T23:01:35;100516.00;;;18.74
65765;BMP180;52915;53.718;19.946;2022-07-23T23:06:39;100507.80;;;18.70
65765;BMP180;52915;53.718;19.946;2022-07-23T23:11:44;100515.60;;;18.66
65765;BMP180;52915;53.718;19.946;2022-07-23T23:16:48;100515.40;;;18.70
65765;BMP180;52915;53.718;19.946;2022-07-23T23:21:55;100508.00;;;18.70
65765;BMP180;52915;53.718;19.946;2022-07-23T23:27:01;100505.60;;;18.70
65765;BMP180;52915;53.718;19.946;2022-07-23T23:32:08;100506.80;;;18.50
65765;BMP180;52915;53.718;19.946;2022-07-23T23:37:13;100505.00;;;18.30
65765;BMP180;52915;53.718;19.946;2022-07-23T23:42:17;100504.40;;;18.30
65765;BMP180;52915;53.718;19.946;2022-07-23T23:47:21;100501.40;;;18.20
65765;BMP180;52915;53.718;19.946;2022-07-23T23:52:26;100497.00;;;18.10
65765;BMP180;52915;53.718;19.946;2022-07-23T23:57:30;100489.20;;;17.90
